createdAt,value
2019-03-29T00:00:22.481Z,8.53
2019-03-29T00:02:52.353Z,8.45
2019-03-29T00:05:22.090Z,8.38
2019-03-29T00:07:51.894Z,8.30
2019-03-29T00:10:21.656Z,8.18
2019-03-29T00:12:52.191Z,8.13
2019-03-29T00:15:21.939Z,8.05
2019-03-29T00:17:51.710Z,8.01
2019-03-29T00:20:21.420Z,8.00
2019-03-29T00:22:51.154Z,7.99
2019-03-29T00:25:20.980Z,7.96
2019-03-29T00:27:50.718Z,7.94
2019-03-29T00:30:20.459Z,7.93
2019-03-29T00:32:50.213Z,7.82
2019-03-29T00:35:20.061Z,7.81
2019-03-29T00:37:53.766Z,7.76
2019-03-29T00:40:21.544Z,7.76
2019-03-29T00:42:51.370Z,7.71
2019-03-29T00:45:21.180Z,7.69
2019-03-29T00:47:50.905Z,7.60
2019-03-29T00:50:20.763Z,7.54
2019-03-29T00:55:32.850Z,7.46
2019-03-29T00:58:02.576Z,7.47
2019-03-29T01:00:33.662Z,7.47
2019-03-29T01:03:03.721Z,7.50
2019-03-29T01:05:33.552Z,7.47
2019-03-29T01:08:08.187Z,7.42
2019-03-29T01:10:34.898Z,7.44
2019-03-29T01:13:04.662Z,7.43
2019-03-29T01:15:34.327Z,7.46
2019-03-29T01:18:04.079Z,7.49
2019-03-29T01:20:33.922Z,7.39
2019-03-29T01:23:03.659Z,7.40
2019-03-29T01:25:33.325Z,7.34
2019-03-29T01:28:03.085Z,7.36
2019-03-29T01:30:32.755Z,7.35
2019-03-29T01:33:02.476Z,7.40
2019-03-29T01:35:32.132Z,7.29
2019-03-29T01:38:01.833Z,7.22
2019-03-29T01:40:31.561Z,7.28
2019-03-29T01:43:01.341Z,7.26
2019-03-29T01:45:31.089Z,7.13
2019-03-29T01:48:00.776Z,7.17
2019-03-29T01:50:30.463Z,7.17
2019-03-29T01:53:00.124Z,7.13
2019-03-29T01:55:29.883Z,7.12
2019-03-29T01:57:59.552Z,7.17
2019-03-29T02:00:33.689Z,7.12
2019-03-29T02:03:03.500Z,7.07
2019-03-29T02:05:33.195Z,7.09
2019-03-29T02:08:02.865Z,7.11
2019-03-29T02:10:32.623Z,7.07
2019-03-29T02:13:02.304Z,7.03
2019-03-29T02:15:32.226Z,7.01
2019-03-29T02:18:01.957Z,7.00
2019-03-29T02:20:31.650Z,7.00
2019-03-29T02:23:01.300Z,7.01
2019-03-29T02:25:30.985Z,6.98
2019-03-29T02:28:00.733Z,6.92
2019-03-29T02:30:31.961Z,6.83
2019-03-29T02:33:01.889Z,6.92
2019-03-29T02:35:31.594Z,6.87
2019-03-29T02:38:01.259Z,6.96
2019-03-29T02:40:31.042Z,7.00
2019-03-29T02:43:00.714Z,7.11
2019-03-29T02:45:33.026Z,7.15
2019-03-29T02:48:02.670Z,7.26
2019-03-29T02:50:32.344Z,7.27
2019-03-29T02:53:02.024Z,7.40
2019-03-29T02:55:31.697Z,7.49
2019-03-29T02:58:01.392Z,7.54
2019-03-29T03:00:31.095Z,7.58
2019-03-29T03:03:00.786Z,7.76
2019-03-29T03:05:30.533Z,7.78
2019-03-29T03:08:00.224Z,7.84
2019-03-29T03:10:29.899Z,7.82
2019-03-29T03:12:59.697Z,7.85
2019-03-29T03:15:29.653Z,7.94
2019-03-29T03:17:59.341Z,7.96
2019-03-29T03:20:29.018Z,7.95
2019-03-29T03:22:58.733Z,7.90
2019-03-29T03:25:28.404Z,7.95
2019-03-29T03:27:58.469Z,7.98
2019-03-29T03:30:28.137Z,8.04
2019-03-29T03:32:57.838Z,7.89
2019-03-29T03:35:27.502Z,7.86
2019-03-29T03:37:57.287Z,7.91
2019-03-29T03:40:26.954Z,7.94
2019-03-29T03:42:56.737Z,8.10
2019-03-29T03:45:26.398Z,8.13
2019-03-29T03:47:56.078Z,8.13
2019-03-29T03:50:31.635Z,8.07
2019-03-29T03:53:01.412Z,7.99
2019-03-29T03:55:32.367Z,8.05
2019-03-29T03:58:03.875Z,8.03
2019-03-29T04:00:52.935Z,8.05
2019-03-29T04:03:23.602Z,8.05
2019-03-29T04:05:53.542Z,8.11
2019-03-29T04:08:23.323Z,8.14
2019-03-29T04:10:53.145Z,8.23
2019-03-29T04:13:23.132Z,8.21
2019-03-29T04:15:53.110Z,8.37
2019-03-29T04:18:22.953Z,8.29
2019-03-29T04:20:52.610Z,8.32
2019-03-29T04:23:22.375Z,8.39
2019-03-29T04:25:52.064Z,8.46
2019-03-29T04:28:21.745Z,8.52
2019-03-29T04:30:51.501Z,8.55
2019-03-29T04:33:21.251Z,8.65
2019-03-29T04:35:50.963Z,8.59
2019-03-29T04:38:20.696Z,8.67
2019-03-29T04:40:50.450Z,8.71
2019-03-29T04:43:20.160Z,8.74
2019-03-29T04:45:49.872Z,8.70
2019-03-29T04:48:19.554Z,8.89
2019-03-29T04:50:49.504Z,8.84
2019-03-29T04:53:19.285Z,8.91
2019-03-29T04:55:48.978Z,8.98
2019-03-29T04:58:18.657Z,9.02
2019-03-29T05:00:48.386Z,9.03
2019-03-29T05:03:18.514Z,9.00
2019-03-29T05:05:48.282Z,9.00
2019-03-29T05:08:18.033Z,9.04
2019-03-29T05:10:47.710Z,9.01
2019-03-29T05:13:17.471Z,9.05
2019-03-29T05:15:47.215Z,9.05
2019-03-29T05:18:17.674Z,9.21
2019-03-29T05:20:47.347Z,9.26
2019-03-29T05:23:17.020Z,9.20
2019-03-29T05:25:46.703Z,9.12
2019-03-29T05:28:16.474Z,9.04
2019-03-29T05:30:46.147Z,9.09
2019-03-29T05:33:15.843Z,9.03
2019-03-29T05:35:45.521Z,9.11
2019-03-29T05:38:15.238Z,9.07
2019-03-29T05:40:44.908Z,9.11
2019-03-29T05:43:14.662Z,9.19
2019-03-29T05:45:44.399Z,9.16
2019-03-29T05:48:14.167Z,9.10
2019-03-29T05:50:43.905Z,9.15
2019-03-29T05:53:13.693Z,9.26
2019-03-29T05:55:43.476Z,9.20
2019-03-29T05:58:13.736Z,9.20
2019-03-29T06:00:44.152Z,9.21
2019-03-29T06:03:13.922Z,9.34
2019-03-29T06:05:43.759Z,9.29
2019-03-29T06:08:13.441Z,9.29
2019-03-29T06:10:48.746Z,9.35
2019-03-29T06:13:14.591Z,9.38
2019-03-29T06:15:44.364Z,9.44
2019-03-29T06:18:14.054Z,9.46
2019-03-29T06:20:43.752Z,9.47
2019-03-29T06:23:13.593Z,9.47
2019-03-29T06:25:43.376Z,9.50
2019-03-29T06:28:13.148Z,9.53
2019-03-29T06:30:42.877Z,9.57
2019-03-29T06:33:12.615Z,9.62
2019-03-29T06:35:44.336Z,9.61
2019-03-29T06:38:14.564Z,9.75
2019-03-29T06:40:44.243Z,9.72
2019-03-29T06:43:13.936Z,9.74
2019-03-29T06:45:48.253Z,9.70
2019-03-29T06:48:15.685Z,9.75
2019-03-29T06:50:45.487Z,9.76
2019-03-29T06:53:15.447Z,9.83
2019-03-29T06:55:45.214Z,9.83
2019-03-29T06:58:14.910Z,9.86
2019-03-29T07:00:46.628Z,9.92
2019-03-29T07:03:15.969Z,9.91
2019-03-29T07:05:45.664Z,9.94
2019-03-29T07:08:15.406Z,9.99
2019-03-29T07:10:45.091Z,9.98
2019-03-29T07:13:14.794Z,9.98
2019-03-29T07:15:44.807Z,10.04
2019-03-29T07:18:14.656Z,10.05
2019-03-29T07:20:44.354Z,10.11
2019-03-29T07:23:14.069Z,10.07
2019-03-29T07:25:43.746Z,10.14
2019-03-29T07:28:13.469Z,10.16
2019-03-29T07:30:43.251Z,10.17
2019-03-29T07:33:12.928Z,10.18
2019-03-29T07:35:42.624Z,10.20
2019-03-29T07:38:12.325Z,10.17
2019-03-29T07:40:42.019Z,10.19
2019-03-29T07:43:11.700Z,10.22
2019-03-29T07:45:41.564Z,10.22
2019-03-29T07:48:11.262Z,10.30
2019-03-29T07:50:40.959Z,10.26
2019-03-29T07:53:10.685Z,10.24
2019-03-29T07:55:40.492Z,10.25
2019-03-29T07:58:10.273Z,10.23
2019-03-29T08:00:39.999Z,10.26
2019-03-29T08:03:09.767Z,10.27
2019-03-29T08:05:39.499Z,10.37
2019-03-29T08:08:22.748Z,10.31
2019-03-29T08:10:41.082Z,10.37
2019-03-29T08:13:10.778Z,10.44
2019-03-29T08:15:40.570Z,10.43
2019-03-29T08:18:10.305Z,10.47
2019-03-29T08:20:43.929Z,10.51
2019-03-29T08:23:11.742Z,10.50
2019-03-29T08:25:41.550Z,10.60
2019-03-29T08:28:11.246Z,10.60
2019-03-29T08:30:40.957Z,10.62
2019-03-29T08:33:10.640Z,10.64
2019-03-29T08:35:40.326Z,10.66
2019-03-29T08:38:10.158Z,10.74
2019-03-29T08:40:39.891Z,10.78
2019-03-29T08:43:09.605Z,10.82
2019-03-29T08:45:39.370Z,10.85
2019-03-29T08:48:09.066Z,10.86
2019-03-29T08:50:38.738Z,10.89
2019-03-29T08:53:08.469Z,10.97
2019-03-29T08:55:45.832Z,10.99
2019-03-29T08:58:09.557Z,11.09
2019-03-29T09:00:39.269Z,11.07
2019-03-29T09:03:08.967Z,11.09
2019-03-29T09:05:39.317Z,11.08
2019-03-29T09:08:09.210Z,11.11
2019-03-29T09:10:38.911Z,11.12
2019-03-29T09:13:08.620Z,11.22
2019-03-29T09:15:38.341Z,11.37
2019-03-29T09:18:08.020Z,11.44
2019-03-29T09:20:37.728Z,11.30
2019-03-29T09:23:10.307Z,11.32
2019-03-29T09:25:40.436Z,11.31
2019-03-29T09:28:10.423Z,11.25
2019-03-29T09:30:40.345Z,11.32
2019-03-29T09:33:10.022Z,11.82
2019-03-29T09:35:42.598Z,12.01
2019-03-29T09:38:11.277Z,12.23
2019-03-29T09:40:42.307Z,12.17
2019-03-29T09:43:12.223Z,12.22
2019-03-29T09:45:42.651Z,12.27
2019-03-29T09:48:12.648Z,12.41
2019-03-29T09:50:42.486Z,12.35
2019-03-29T09:53:14.068Z,12.64
2019-03-29T09:55:45.734Z,12.37
2019-03-29T09:58:17.415Z,12.34
2019-03-29T10:00:48.101Z,12.39
2019-03-29T10:03:19.499Z,12.38
2019-03-29T10:05:49.289Z,12.40
2019-03-29T10:08:18.979Z,12.34
2019-03-29T10:10:48.699Z,12.55
2019-03-29T10:13:18.398Z,12.59
2019-03-29T10:15:51.216Z,12.78
2019-03-29T10:18:19.518Z,12.69
2019-03-29T10:20:49.279Z,12.49
2019-03-29T10:23:19.086Z,12.53
2019-03-29T10:25:48.850Z,12.38
2019-03-29T10:28:18.514Z,12.54
2019-03-29T10:30:48.247Z,12.75
2019-03-29T10:33:17.989Z,12.82
2019-03-29T10:35:52.749Z,12.83
2019-03-29T10:38:19.226Z,12.89
2019-03-29T10:40:49.085Z,12.84
2019-03-29T10:43:18.919Z,12.75
2019-03-29T10:45:48.707Z,12.81
2019-03-29T10:48:18.465Z,12.76
2019-03-29T10:50:48.228Z,12.56
2019-03-29T10:53:18.140Z,12.51
2019-03-29T10:55:47.921Z,12.61
2019-03-29T10:58:17.621Z,12.66
2019-03-29T11:00:47.397Z,12.76
2019-03-29T11:03:17.195Z,12.72
2019-03-29T11:05:46.927Z,12.99
2019-03-29T11:08:16.661Z,13.10
2019-03-29T11:10:46.358Z,12.89
2019-03-29T11:13:16.207Z,12.95
2019-03-29T11:15:45.924Z,12.96
2019-03-29T11:18:15.796Z,12.96
2019-03-29T11:20:45.649Z,13.08
2019-03-29T11:23:15.346Z,13.04
2019-03-29T11:25:48.364Z,12.89
2019-03-29T11:28:16.646Z,12.96
2019-03-29T11:30:46.452Z,12.93
2019-03-29T11:33:23.559Z,13.07
2019-03-29T11:35:55.974Z,13.00
2019-03-29T11:38:24.907Z,13.00
2019-03-29T11:40:54.642Z,13.08
2019-03-29T11:43:26.953Z,13.19
2019-03-29T11:45:55.843Z,13.30
2019-03-29T11:48:25.583Z,13.18
2019-03-29T11:50:55.421Z,13.26
2019-03-29T11:53:26.285Z,13.26
2019-03-29T11:55:55.969Z,13.45
2019-03-29T11:58:25.757Z,13.43
2019-03-29T12:00:55.538Z,13.37
2019-03-29T12:03:25.300Z,13.40
2019-03-29T12:05:55.154Z,13.15
2019-03-29T12:08:27.754Z,13.10
2019-03-29T12:10:57.480Z,13.13
2019-03-29T12:13:40.489Z,13.13
2019-03-29T12:15:58.834Z,13.51
2019-03-29T12:18:28.619Z,13.54
2019-03-29T12:20:58.365Z,13.67
2019-03-29T12:23:28.085Z,13.59
2019-03-29T12:25:57.854Z,13.31
2019-03-29T12:28:27.576Z,13.27
2019-03-29T12:30:57.302Z,13.10
2019-03-29T12:33:27.111Z,13.14
2019-03-29T12:35:56.796Z,13.39
2019-03-29T12:38:26.514Z,13.46
2019-03-29T12:40:56.215Z,13.37
2019-03-29T12:43:25.929Z,13.39
2019-03-29T12:45:55.617Z,13.28
2019-03-29T12:48:25.328Z,13.07
2019-03-29T12:50:56.661Z,13.08
2019-03-29T12:53:32.299Z,13.06
2019-03-29T12:56:01.980Z,13.08
2019-03-29T12:58:31.800Z,13.04
2019-03-29T13:01:01.450Z,13.32
2019-03-29T13:03:31.157Z,13.40
2019-03-29T13:06:00.838Z,13.42
2019-03-29T13:08:30.557Z,13.50
2019-03-29T13:11:00.260Z,13.52
2019-03-29T13:13:30.030Z,13.49
2019-03-29T13:15:59.726Z,13.46
2019-03-29T13:18:29.513Z,13.56
2019-03-29T13:20:59.282Z,13.46
2019-03-29T13:23:29.129Z,13.42
2019-03-29T13:25:58.885Z,13.51
2019-03-29T13:28:28.667Z,13.70
2019-03-29T13:30:58.494Z,13.76
2019-03-29T13:33:28.271Z,13.62
2019-03-29T13:35:58.048Z,13.89
2019-03-29T13:38:27.754Z,13.73
2019-03-29T13:40:57.434Z,13.72
2019-03-29T13:43:27.138Z,13.45
2019-03-29T13:45:56.927Z,13.33
2019-03-29T13:48:26.651Z,13.17
2019-03-29T13:50:59.299Z,13.05
2019-03-29T13:53:35.103Z,12.99
2019-03-29T13:56:04.856Z,12.86
2019-03-29T13:58:34.562Z,12.81
2019-03-29T14:01:04.331Z,12.76
2019-03-29T14:03:34.026Z,12.98
2019-03-29T14:06:03.713Z,13.06
2019-03-29T14:08:33.427Z,13.37
2019-03-29T14:11:03.113Z,13.51
2019-03-29T14:13:32.847Z,13.47
2019-03-29T14:16:02.601Z,13.37
2019-03-29T14:18:32.305Z,13.40
2019-03-29T14:21:02.065Z,13.49
2019-03-29T14:23:31.764Z,13.30
2019-03-29T14:26:01.542Z,13.42
2019-03-29T14:28:31.245Z,13.56
2019-03-29T14:31:00.938Z,13.50
2019-03-29T14:33:30.630Z,13.53
2019-03-29T14:36:00.390Z,13.60
2019-03-29T14:38:31.122Z,13.65
2019-03-29T14:41:00.815Z,13.60
2019-03-29T14:43:30.628Z,13.50
2019-03-29T14:46:00.322Z,13.51
2019-03-29T14:48:30.062Z,13.56
2019-03-29T14:50:59.753Z,13.46
2019-03-29T14:53:29.585Z,13.61
2019-03-29T14:55:59.594Z,13.51
2019-03-29T14:58:29.312Z,13.44
2019-03-29T15:00:59.075Z,13.52
2019-03-29T15:03:28.780Z,13.59
2019-03-29T15:06:01.604Z,13.63
2019-03-29T15:08:30.271Z,13.68
2019-03-29T15:11:00.029Z,13.66
2019-03-29T15:13:29.746Z,13.65
2019-03-29T15:15:59.436Z,13.56
2019-03-29T15:18:29.224Z,13.56
2019-03-29T15:20:58.914Z,13.68
2019-03-29T15:23:28.586Z,13.64
2019-03-29T15:25:58.301Z,13.51
2019-03-29T15:28:27.995Z,13.52
2019-03-29T15:30:57.703Z,13.59
2019-03-29T15:33:27.400Z,13.63
2019-03-29T15:35:57.101Z,13.66
2019-03-29T15:38:26.946Z,13.64
2019-03-29T15:40:56.748Z,13.63
2019-03-29T15:43:26.421Z,13.50
2019-03-29T15:45:56.153Z,13.47
2019-03-29T15:48:25.932Z,13.43
2019-03-29T15:50:55.719Z,13.31
2019-03-29T15:53:25.587Z,13.34
2019-03-29T15:55:55.993Z,13.21
2019-03-29T15:58:25.675Z,13.19
2019-03-29T16:00:55.465Z,13.20
2019-03-29T16:03:25.246Z,13.15
2019-03-29T16:05:54.960Z,13.17
2019-03-29T16:08:24.636Z,13.22
2019-03-29T16:10:54.419Z,13.22
2019-03-29T16:13:24.180Z,13.20
2019-03-29T16:15:54.134Z,13.08
2019-03-29T16:18:24.016Z,13.04
2019-03-29T16:20:55.391Z,13.01
2019-03-29T16:23:25.557Z,12.96
2019-03-29T16:25:55.350Z,12.92
2019-03-29T16:28:25.285Z,12.85
2019-03-29T16:30:55.433Z,12.85
2019-03-29T16:33:25.124Z,12.83
2019-03-29T16:35:54.824Z,12.77
2019-03-29T16:38:24.636Z,12.68
2019-03-29T16:40:54.640Z,12.63
2019-03-29T16:43:24.326Z,12.58
2019-03-29T16:45:54.106Z,12.50
2019-03-29T16:48:23.878Z,12.46
2019-03-29T16:50:53.656Z,12.40
2019-03-29T16:53:23.360Z,12.35
2019-03-29T16:55:53.067Z,12.31
2019-03-29T16:58:22.772Z,12.26
2019-03-29T17:00:52.539Z,12.20
2019-03-29T17:03:22.293Z,12.13
2019-03-29T17:05:52.100Z,12.02
2019-03-29T17:08:21.767Z,12.02
2019-03-29T17:10:52.176Z,11.95
2019-03-29T17:13:21.943Z,11.92
2019-03-29T17:16:01.589Z,11.79
2019-03-29T17:18:29.237Z,11.68
2019-03-29T17:20:54.627Z,11.61
2019-03-29T17:23:24.303Z,11.50
2019-03-29T17:25:54.010Z,11.43
2019-03-29T17:28:23.708Z,11.31
2019-03-29T17:30:55.055Z,11.24
2019-03-29T17:33:24.888Z,11.13
2019-03-29T17:35:54.600Z,11.07
2019-03-29T17:38:24.268Z,11.00
2019-03-29T17:40:54.044Z,10.95
2019-03-29T17:43:23.716Z,10.86
2019-03-29T17:45:53.443Z,10.81
2019-03-29T17:48:23.150Z,10.73
2019-03-29T17:50:52.850Z,10.65
2019-03-29T17:53:22.609Z,10.61
2019-03-29T17:55:52.313Z,10.52
2019-03-29T17:58:22.020Z,10.41
2019-03-29T18:00:51.687Z,10.36
2019-03-29T18:03:21.449Z,10.30
2019-03-29T18:05:51.216Z,10.20
2019-03-29T18:08:20.970Z,10.16
2019-03-29T18:10:50.700Z,10.12
2019-03-29T18:13:20.479Z,10.04
2019-03-29T18:15:50.159Z,9.95
2019-03-29T18:18:19.855Z,9.90
2019-03-29T18:20:49.553Z,9.83
2019-03-29T18:23:19.334Z,9.81
2019-03-29T18:25:49.075Z,9.71
2019-03-29T18:28:18.788Z,9.67
2019-03-29T18:30:48.451Z,9.57
2019-03-29T18:33:18.580Z,9.52
2019-03-29T18:35:48.270Z,9.45
2019-03-29T18:38:17.970Z,9.41
2019-03-29T18:40:47.714Z,9.39
2019-03-29T18:43:17.420Z,9.37
2019-03-29T18:45:47.141Z,9.32
2019-03-29T18:48:16.799Z,9.26
2019-03-29T18:50:46.478Z,9.13
2019-03-29T18:53:16.179Z,9.07
2019-03-29T18:55:45.870Z,9.03
2019-03-29T18:58:15.719Z,9.00
2019-03-29T19:00:45.463Z,8.98
2019-03-29T19:03:15.149Z,8.90
2019-03-29T19:05:44.906Z,8.89
2019-03-29T19:08:15.529Z,8.70
2019-03-29T19:10:45.275Z,8.61
2019-03-29T19:13:15.060Z,8.57
2019-03-29T19:15:44.821Z,8.58
2019-03-29T19:18:17.143Z,8.51
2019-03-29T19:20:46.999Z,8.54
2019-03-29T19:23:18.395Z,8.46
2019-03-29T19:25:48.256Z,8.40
2019-03-29T19:28:18.027Z,8.34
2019-03-29T19:30:48.079Z,8.32
2019-03-29T19:33:18.113Z,8.22
2019-03-29T19:35:51.540Z,8.15
2019-03-29T19:38:21.406Z,8.06
2019-03-29T19:40:51.851Z,7.98
2019-03-29T19:43:22.896Z,7.94
2019-03-29T19:45:53.155Z,7.86
2019-03-29T19:48:23.409Z,7.76
2019-03-29T19:50:53.343Z,7.80
2019-03-29T19:53:23.416Z,7.75
2019-03-29T19:55:53.180Z,7.70
2019-03-29T19:58:22.925Z,7.72
2019-03-29T20:00:53.108Z,7.69
2019-03-29T20:03:22.986Z,7.65
2019-03-29T20:05:52.703Z,7.64
2019-03-29T20:08:25.266Z,7.64
2019-03-29T20:10:56.705Z,7.63
2019-03-29T20:13:26.560Z,7.64
2019-03-29T20:16:07.522Z,7.56
2019-03-29T20:18:38.544Z,7.55
2019-03-29T20:21:08.590Z,7.50
2019-03-29T20:23:39.748Z,7.50
2019-03-29T20:26:09.937Z,7.46
2019-03-29T20:28:39.983Z,7.43
2019-03-29T20:31:09.770Z,7.34
2019-03-29T20:33:39.776Z,7.31
2019-03-29T20:36:10.318Z,7.38
2019-03-29T20:38:40.035Z,7.27
2019-03-29T20:41:09.874Z,7.19
2019-03-29T20:43:39.802Z,7.11
2019-03-29T20:46:09.836Z,7.08
2019-03-29T20:48:39.666Z,6.97
2019-03-29T20:51:09.661Z,6.97
2019-03-29T20:53:40.057Z,6.95
2019-03-29T20:56:14.474Z,6.93
2019-03-29T20:58:44.488Z,6.89
2019-03-29T21:01:18.874Z,6.85
2019-03-29T21:03:48.856Z,6.81
2019-03-29T21:06:18.611Z,6.78
2019-03-29T21:08:48.413Z,6.72
2019-03-29T21:11:19.452Z,6.64
2019-03-29T21:13:52.541Z,6.59
2019-03-29T21:16:22.462Z,6.47
2019-03-29T21:18:54.248Z,6.45
2019-03-29T21:21:23.972Z,6.42
2019-03-29T21:23:55.481Z,6.38
2019-03-29T21:26:25.396Z,6.31
2019-03-29T21:28:55.537Z,6.34
2019-03-29T21:31:25.350Z,6.31
2019-03-29T21:33:55.047Z,6.24
2019-03-29T21:36:25.647Z,6.19
2019-03-29T21:38:55.794Z,6.11
2019-03-29T21:41:26.387Z,5.96
2019-03-29T21:43:56.116Z,6.00
2019-03-29T21:46:25.907Z,5.97
2019-03-29T21:48:55.738Z,5.92
2019-03-29T21:51:25.392Z,5.87
2019-03-29T21:53:55.225Z,5.85
2019-03-29T21:56:25.060Z,5.84
2019-03-29T21:58:56.305Z,5.87
2019-03-29T22:01:26.139Z,5.85
2019-03-29T22:03:55.807Z,5.78
2019-03-29T22:06:25.511Z,5.80
2019-03-29T22:08:55.257Z,5.72
2019-03-29T22:11:25.123Z,5.72
2019-03-29T22:13:54.823Z,5.67
2019-03-29T22:16:24.535Z,5.68
2019-03-29T22:18:54.305Z,5.65
2019-03-29T22:21:24.058Z,5.62
2019-03-29T22:23:53.744Z,5.60
2019-03-29T22:26:23.470Z,5.56
2019-03-29T22:28:53.148Z,5.57
2019-03-29T22:31:22.894Z,5.55
2019-03-29T22:33:52.590Z,5.51
2019-03-29T22:36:22.304Z,5.44
2019-03-29T22:38:52.010Z,5.41
2019-03-29T22:41:21.833Z,5.40
2019-03-29T22:43:53.018Z,5.38
2019-03-29T22:46:22.689Z,5.33
2019-03-29T22:48:53.517Z,5.39
2019-03-29T22:51:23.272Z,5.37
2019-03-29T22:53:53.062Z,5.38
2019-03-29T22:56:24.376Z,5.41
2019-03-29T22:58:54.085Z,5.36
2019-03-29T23:01:23.988Z,5.32
2019-03-29T23:03:53.756Z,5.27
2019-03-29T23:06:23.490Z,5.22
2019-03-29T23:08:53.231Z,5.18
2019-03-29T23:11:22.938Z,5.12
2019-03-29T23:13:52.726Z,5.12
2019-03-29T23:16:22.478Z,5.09
2019-03-29T23:19:05.587Z,5.03
2019-03-29T23:21:23.567Z,5.01
2019-03-29T23:23:53.285Z,4.83
2019-03-29T23:26:22.971Z,4.73
2019-03-29T23:28:52.737Z,4.76
2019-03-29T23:31:22.485Z,4.77
2019-03-29T23:33:52.191Z,4.78
2019-03-29T23:36:21.897Z,4.69
2019-03-29T23:38:51.639Z,4.63
2019-03-29T23:41:21.383Z,4.57
2019-03-29T23:43:51.096Z,4.59
2019-03-29T23:46:20.863Z,4.59
2019-03-29T23:48:50.580Z,4.58
2019-03-29T23:51:20.262Z,4.59
2019-03-29T23:53:50.133Z,4.61
2019-03-29T23:56:19.800Z,4.51
2019-03-29T23:58:49.503Z,4.49
